Terminal Aerodrome Forecast
Issued by NWS Cleveland, OH

Home | Current Version | Previous Version | Text Only | Print | Product List | Glossary On
Versions: 1 2 3 4 5 6 7 8 9 10 11 12 13 14 15 16 17
000
FTUS41 KCLE 271100
TAFMFD
TAF
KMFD 271126Z 2712/2812 30008KT P6SM SCT050 OVC080
     FM271500 33012KT P6SM OVC020
     FM272200 35008KT P6SM SCT030 BKN050
     FM280600 35004KT P6SM SCT050=

USA.gov is the U.S. government's official web portal to all federal, state and local government web resources and services.